createdAt,value
2022-12-08T00:02:54.767Z,3.87
2022-12-08T00:06:15.409Z,3.88
2022-12-08T00:09:23.558Z,3.89
2022-12-08T00:12:27.676Z,3.89
2022-12-08T00:15:30.433Z,3.82
2022-12-08T00:18:33.345Z,3.78
2022-12-08T00:21:36.062Z,3.63
2022-12-08T00:24:40.687Z,3.43
2022-12-08T00:27:44.717Z,3.31
2022-12-08T00:30:47.538Z,3.19
2022-12-08T00:33:50.218Z,3.10
2022-12-08T00:36:52.903Z,2.87
2022-12-08T00:39:55.622Z,2.59
2022-12-08T00:42:59.874Z,2.42
2022-12-08T00:46:02.587Z,2.27
2022-12-08T00:49:05.738Z,2.18
2022-12-08T00:52:09.059Z,1.97
2022-12-08T00:55:11.740Z,1.77
2022-12-08T00:58:16.062Z,1.64
2022-12-08T01:01:18.890Z,1.65
2022-12-08T01:04:22.294Z,1.58
2022-12-08T01:07:25.176Z,1.56
2022-12-08T01:10:28.181Z,1.52
2022-12-08T01:13:32.166Z,1.50
2022-12-08T01:16:37.271Z,1.41
2022-12-08T01:19:40.423Z,1.30
2022-12-08T01:22:43.156Z,1.19
2022-12-08T01:25:46.092Z,1.16
2022-12-08T01:28:50.683Z,1.11
2022-12-08T01:31:53.353Z,1.12
2022-12-08T01:34:56.046Z,1.08
2022-12-08T01:37:58.980Z,0.99
2022-12-08T01:41:01.673Z,0.94
2022-12-08T01:44:44.589Z,0.91
2022-12-08T01:47:49.585Z,0.83
2022-12-08T01:50:52.850Z,0.89
2022-12-08T01:53:55.950Z,0.95
2022-12-08T01:57:02.636Z,1.02
2022-12-08T02:00:09.516Z,0.91
2022-12-08T02:03:15.786Z,0.72
2022-12-08T02:06:18.967Z,0.58
2022-12-08T02:09:22.670Z,0.58
2022-12-08T02:12:25.464Z,0.52
2022-12-08T02:15:37.932Z,0.53
2022-12-08T02:19:29.870Z,0.46
2022-12-08T02:22:29.303Z,0.50
2022-12-08T02:25:41.094Z,0.51
2022-12-08T02:29:03.543Z,0.60
2022-12-08T02:32:24.587Z,0.60
2022-12-08T02:35:33.304Z,0.58
2022-12-08T02:38:43.150Z,0.45
2022-12-08T02:41:49.085Z,0.38
2022-12-08T02:44:55.670Z,0.26
2022-12-08T02:47:59.589Z,0.16
2022-12-08T02:51:03.390Z,0.14
2022-12-08T02:54:06.182Z,0.14
2022-12-08T02:57:20.010Z,0.08
2022-12-08T03:00:24.001Z,0.07
2022-12-08T03:03:33.028Z,-0.01
2022-12-08T03:06:43.925Z,0.03
2022-12-08T03:09:49.913Z,0.12
2022-12-08T03:12:57.290Z,0.10
2022-12-08T03:16:04.571Z,0.14
2022-12-08T03:19:10.336Z,0.19
2022-12-08T03:22:15.011Z,0.23
2022-12-08T03:25:20.894Z,0.19
2022-12-08T03:28:23.842Z,0.19
2022-12-08T03:31:28.433Z,0.26
2022-12-08T03:34:31.845Z,0.39
2022-12-08T03:37:38.077Z,0.41
2022-12-08T03:40:41.258Z,0.40
2022-12-08T03:43:43.987Z,0.25
2022-12-08T03:46:46.899Z,0.14
2022-12-08T03:49:49.534Z,-0.13
2022-12-08T03:52:53.639Z,-0.26
2022-12-08T03:55:56.281Z,-0.10
2022-12-08T03:58:59.126Z,-0.19
2022-12-08T04:02:01.865Z,-0.11
2022-12-08T04:05:05.439Z,-0.13
2022-12-08T04:08:10.392Z,-0.22
2022-12-08T04:11:13.315Z,-0.17
2022-12-08T04:14:18.017Z,-0.21
2022-12-08T04:17:20.623Z,-0.27
2022-12-08T04:20:23.300Z,-0.32
2022-12-08T04:23:27.433Z,-0.16
2022-12-08T04:26:30.856Z,-0.17
2022-12-08T04:29:33.831Z,-0.15
2022-12-08T04:32:36.610Z,-0.12
2022-12-08T04:35:39.294Z,-0.20
2022-12-08T04:38:43.336Z,-0.33
2022-12-08T04:41:46.130Z,-0.50
2022-12-08T04:44:48.958Z,-0.60
2022-12-08T04:47:51.915Z,-0.58
2022-12-08T04:50:54.738Z,-0.43
2022-12-08T04:53:59.084Z,-0.41
2022-12-08T04:57:01.685Z,-0.29
2022-12-08T05:00:06.606Z,-0.33
2022-12-08T05:03:09.742Z,-0.30
2022-12-08T05:06:14.582Z,-0.28
2022-12-08T05:09:18.872Z,-0.25
2022-12-08T05:12:21.558Z,-0.34
2022-12-08T05:15:24.372Z,-0.36
2022-12-08T05:18:27.429Z,-0.36
2022-12-08T05:21:30.155Z,-0.42
2022-12-08T05:24:34.281Z,-0.48
2022-12-08T05:27:38.039Z,-0.44
2022-12-08T05:30:41.198Z,-0.50
2022-12-08T05:33:44.577Z,-0.46
2022-12-08T05:36:47.481Z,-0.41
2022-12-08T05:39:51.399Z,-0.39
2022-12-08T05:42:54.271Z,-0.43
2022-12-08T05:45:56.987Z,-0.45
2022-12-08T05:49:00.738Z,-0.35
2022-12-08T05:52:03.375Z,-0.43
2022-12-08T05:55:08.321Z,-0.43
2022-12-08T05:58:13.919Z,-0.47
2022-12-08T06:01:24.575Z,-0.46
2022-12-08T06:04:27.931Z,-0.56
2022-12-08T06:07:30.768Z,-0.57
2022-12-08T06:10:35.236Z,-0.54
2022-12-08T06:13:38.091Z,-0.48
2022-12-08T06:16:41.149Z,-0.43
2022-12-08T06:19:44.026Z,-0.50
2022-12-08T06:22:46.821Z,-0.57
2022-12-08T06:25:51.239Z,-0.49
2022-12-08T06:28:54.374Z,-0.53
2022-12-08T06:31:57.282Z,-0.55
2022-12-08T06:35:00.193Z,-0.69
2022-12-08T06:38:03.204Z,-0.81
2022-12-08T06:41:08.045Z,-0.72
2022-12-08T06:44:10.759Z,-0.70
2022-12-08T06:47:13.676Z,-0.56
2022-12-08T06:50:17.832Z,-0.54
2022-12-08T06:53:20.671Z,-0.59
2022-12-08T06:56:28.127Z,-0.66
2022-12-08T06:59:31.166Z,-0.70
2022-12-08T07:02:34.446Z,-0.72
2022-12-08T07:05:37.492Z,-0.65
2022-12-08T07:08:40.579Z,-0.64
2022-12-08T07:11:45.957Z,-0.62
2022-12-08T07:14:48.590Z,-0.52
2022-12-08T07:17:57.896Z,-0.49
2022-12-08T07:21:07.047Z,-0.44
2022-12-08T07:24:10.069Z,-0.37
2022-12-08T07:27:16.715Z,-0.36
2022-12-08T07:30:19.746Z,-0.33
2022-12-08T07:33:22.408Z,-0.29
2022-12-08T07:36:25.672Z,-0.31
2022-12-08T07:39:28.742Z,-0.27
2022-12-08T07:42:33.100Z,-0.27
2022-12-08T07:45:35.711Z,-0.21
2022-12-08T07:48:38.558Z,-0.27
2022-12-08T07:51:41.256Z,-0.21
2022-12-08T07:54:44.052Z,-0.24
2022-12-08T07:57:48.199Z,-0.16
2022-12-08T08:00:51.070Z,-0.12
2022-12-08T08:03:54.925Z,-0.08
2022-12-08T08:06:57.774Z,0.01
2022-12-08T08:10:00.386Z,0.09
2022-12-08T08:13:04.289Z,0.14
2022-12-08T08:16:08.074Z,0.16
2022-12-08T08:19:11.020Z,0.20
2022-12-08T08:22:13.772Z,0.22
2022-12-08T08:25:17.424Z,0.26
2022-12-08T08:28:21.703Z,0.20
2022-12-08T08:31:26.087Z,0.22
2022-12-08T08:34:29.059Z,0.26
2022-12-08T08:37:32.392Z,0.28
2022-12-08T08:40:37.846Z,0.35
2022-12-08T08:43:42.032Z,0.43
2022-12-08T08:46:44.991Z,0.50
2022-12-08T08:49:47.624Z,0.57
2022-12-08T08:52:50.794Z,0.61
2022-12-08T08:55:53.376Z,0.69
2022-12-08T08:58:57.700Z,0.73
2022-12-08T09:02:00.693Z,0.77
2022-12-08T09:05:03.455Z,0.84
2022-12-08T09:08:06.344Z,0.86
2022-12-08T09:11:09.440Z,1.02
2022-12-08T09:14:15.392Z,1.13
2022-12-08T09:17:18.350Z,1.20
2022-12-08T09:20:21.229Z,1.32
2022-12-08T09:23:24.092Z,1.43
2022-12-08T09:26:28.086Z,1.48
2022-12-08T09:29:36.060Z,1.57
2022-12-08T09:32:39.618Z,1.73
2022-12-08T09:35:42.384Z,1.86
2022-12-08T09:38:46.621Z,1.91
2022-12-08T09:41:50.804Z,1.94
2022-12-08T09:45:00.092Z,2.04
2022-12-08T09:48:09.654Z,2.11
2022-12-08T09:51:13.817Z,2.19
2022-12-08T09:54:19.942Z,2.27
2022-12-08T09:57:24.187Z,2.45
2022-12-08T10:00:28.480Z,2.54
2022-12-08T10:03:32.184Z,2.66
2022-12-08T10:06:41.372Z,2.74
2022-12-08T10:09:47.924Z,2.80
2022-12-08T10:12:56.404Z,2.88
2022-12-08T10:16:11.902Z,2.96
2022-12-08T10:19:21.368Z,3.07
2022-12-08T10:22:25.642Z,3.23
2022-12-08T10:25:33.561Z,3.37
2022-12-08T10:28:41.439Z,3.53
2022-12-08T10:31:48.826Z,3.70
2022-12-08T10:35:06.282Z,3.92
2022-12-08T10:38:19.027Z,4.21
2022-12-08T10:41:21.866Z,4.70
2022-12-08T10:44:24.720Z,5.06
2022-12-08T10:47:29.992Z,5.65
2022-12-08T10:50:35.473Z,6.26
2022-12-08T10:53:48.127Z,6.94
2022-12-08T10:56:55.754Z,7.16
2022-12-08T10:59:58.891Z,7.49
2022-12-08T11:03:05.242Z,8.06
2022-12-08T11:06:16.453Z,8.54
2022-12-08T11:09:48.956Z,8.66
2022-12-08T11:12:52.092Z,8.57
2022-12-08T11:15:56.347Z,8.90
2022-12-08T11:19:06.876Z,8.83
2022-12-08T11:22:22.481Z,9.24
2022-12-08T11:25:26.394Z,9.24
2022-12-08T11:28:29.702Z,9.21
2022-12-08T11:31:35.591Z,8.95
2022-12-08T11:34:43.175Z,8.64
2022-12-08T11:37:46.030Z,8.82
2022-12-08T11:40:51.741Z,9.27
2022-12-08T11:43:58.368Z,8.98
2022-12-08T11:47:03.455Z,9.00
2022-12-08T11:50:20.247Z,8.78
2022-12-08T11:53:27.705Z,8.90
2022-12-08T11:56:35.087Z,8.74
2022-12-08T11:59:41.702Z,8.24
2022-12-08T12:02:48.111Z,8.37
2022-12-08T12:06:18.191Z,8.21
2022-12-08T12:09:36.759Z,8.27
2022-12-08T12:12:52.439Z,8.34
2022-12-08T12:16:19.763Z,8.54
2022-12-08T12:19:24.086Z,8.20
2022-12-08T12:22:32.031Z,8.34
2022-12-08T12:25:36.341Z,8.30
2022-12-08T12:28:42.891Z,8.16
2022-12-08T12:31:51.167Z,8.27
2022-12-08T12:34:56.410Z,8.17
2022-12-08T12:38:05.060Z,7.84
2022-12-08T12:41:09.385Z,7.76
2022-12-08T12:44:40.182Z,7.85
2022-12-08T12:47:52.391Z,8.08
2022-12-08T12:50:58.632Z,7.98
2022-12-08T12:54:22.077Z,7.94
2022-12-08T12:57:26.729Z,8.10
2022-12-08T13:00:29.885Z,8.24
2022-12-08T13:03:32.828Z,8.23
2022-12-08T13:06:39.376Z,8.30
2022-12-08T13:09:58.264Z,8.28
2022-12-08T13:13:17.726Z,7.94
2022-12-08T13:16:23.468Z,7.63
2022-12-08T13:19:27.040Z,7.45
2022-12-08T13:22:52.335Z,7.21
2022-12-08T13:26:14.851Z,7.04
2022-12-08T13:29:20.694Z,6.96
2022-12-08T13:33:17.149Z,6.79
2022-12-08T13:36:23.488Z,6.69
2022-12-08T13:39:30.463Z,6.66
2022-12-08T13:42:38.494Z,6.55
2022-12-08T13:46:48.769Z,6.37
2022-12-08T13:50:54.862Z,6.32
2022-12-08T13:59:30.442Z,6.25
2022-12-08T14:02:35.822Z,6.22
2022-12-08T14:06:10.977Z,6.18
2022-12-08T14:09:11.023Z,6.11
2022-12-08T14:12:19.458Z,6.08
2022-12-08T14:15:24.228Z,5.99
2022-12-08T14:18:28.912Z,5.98
2022-12-08T14:21:36.021Z,5.99
2022-12-08T14:24:39.580Z,5.89
2022-12-08T14:27:42.947Z,5.81
2022-12-08T14:30:49.808Z,5.82
2022-12-08T14:33:56.353Z,5.79
2022-12-08T14:37:00.124Z,5.78
2022-12-08T14:40:23.126Z,5.77
2022-12-08T14:43:27.755Z,5.84
2022-12-08T14:46:31.936Z,5.81
2022-12-08T14:49:36.198Z,5.80
2022-12-08T14:52:43.819Z,5.71
2022-12-08T14:55:48.662Z,5.65
2022-12-08T14:58:52.475Z,5.60
2022-12-08T15:02:09.992Z,5.58
2022-12-08T15:05:14.331Z,5.53
2022-12-08T15:08:17.344Z,5.55
2022-12-08T15:11:31.225Z,5.49
2022-12-08T15:14:35.730Z,5.52
2022-12-08T15:17:43.345Z,5.45
2022-12-08T15:20:47.906Z,5.42
2022-12-08T15:23:52.279Z,5.40
2022-12-08T15:26:55.202Z,5.34
2022-12-08T15:29:58.109Z,5.32
2022-12-08T15:33:02.684Z,5.33
2022-12-08T15:36:05.959Z,5.32
2022-12-08T15:39:19.329Z,5.31
2022-12-08T15:42:22.192Z,5.32
2022-12-08T15:45:27.980Z,5.33
2022-12-08T15:48:32.322Z,5.25
2022-12-08T15:51:36.868Z,5.27
2022-12-08T15:54:39.891Z,5.24
2022-12-08T16:01:08.444Z,5.15
2022-12-08T16:04:55.383Z,5.07
2022-12-08T16:07:38.578Z,5.01
2022-12-08T16:11:24.185Z,5.01
2022-12-08T16:14:35.275Z,4.92
2022-12-08T16:17:27.179Z,4.92
2022-12-08T16:21:05.182Z,4.88
2022-12-08T16:23:53.970Z,4.92
2022-12-08T16:30:20.455Z,4.92
2022-12-08T16:33:23.976Z,4.89
2022-12-08T16:36:28.002Z,4.87
2022-12-08T16:39:30.855Z,4.88
2022-12-08T16:42:40.637Z,4.90
2022-12-08T16:45:45.185Z,4.91
2022-12-08T16:48:48.307Z,4.87
2022-12-08T16:51:52.684Z,4.82
2022-12-08T16:54:55.322Z,4.82
2022-12-08T16:57:57.978Z,4.82
2022-12-08T17:01:00.768Z,4.76
2022-12-08T17:07:27.801Z,4.74
2022-12-08T17:10:34.333Z,4.75
2022-12-08T17:13:38.038Z,4.68
2022-12-08T17:16:40.834Z,4.69
2022-12-08T17:19:44.514Z,4.72
2022-12-08T17:22:48.987Z,4.73
2022-12-08T17:26:00.951Z,4.76
2022-12-08T17:29:04.582Z,4.75
2022-12-08T17:32:07.556Z,4.71
2022-12-08T17:35:11.574Z,4.67
2022-12-08T17:38:16.018Z,4.68
2022-12-08T17:41:20.064Z,4.78
2022-12-08T17:44:22.937Z,4.76
2022-12-08T17:47:26.078Z,4.73
2022-12-08T17:50:28.846Z,4.71
2022-12-08T17:53:37.218Z,4.66
2022-12-08T17:56:40.971Z,4.69
2022-12-08T17:59:44.851Z,4.75
2022-12-08T18:02:47.639Z,4.75
2022-12-08T18:05:50.958Z,4.73
2022-12-08T18:08:55.092Z,4.71
2022-12-08T18:11:59.192Z,4.68
2022-12-08T18:15:01.858Z,4.70
2022-12-08T18:18:04.973Z,4.66
2022-12-08T18:21:08.325Z,4.60
2022-12-08T18:24:17.679Z,4.53
2022-12-08T18:27:21.095Z,4.46
2022-12-08T18:30:24.542Z,4.44
2022-12-08T18:33:28.118Z,4.41
2022-12-08T18:36:30.975Z,4.33
2022-12-08T18:39:35.102Z,4.18
2022-12-08T18:42:37.936Z,4.01
2022-12-08T18:45:40.874Z,3.90
2022-12-08T18:48:46.278Z,3.79
2022-12-08T18:51:48.973Z,3.74
2022-12-08T18:55:08.382Z,3.69
2022-12-08T18:58:11.981Z,3.62
2022-12-08T19:01:15.028Z,3.45
2022-12-08T19:04:28.447Z,3.32
2022-12-08T19:07:32.000Z,3.16
2022-12-08T19:10:38.039Z,2.96
2022-12-08T19:13:40.900Z,2.82
2022-12-08T19:16:43.753Z,2.71
2022-12-08T19:19:46.523Z,2.63
2022-12-08T19:22:49.824Z,2.51
2022-12-08T19:25:53.824Z,2.39
2022-12-08T19:28:56.775Z,2.30
2022-12-08T19:32:00.409Z,2.24
2022-12-08T19:35:07.132Z,2.09
2022-12-08T19:38:09.913Z,1.99
2022-12-08T19:41:31.426Z,1.82
2022-12-08T19:44:51.970Z,1.65
2022-12-08T19:47:55.602Z,1.44
2022-12-08T19:50:58.291Z,1.36
2022-12-08T19:54:00.912Z,1.26
2022-12-08T19:57:05.078Z,1.20
2022-12-08T20:00:10.471Z,1.18
2022-12-08T20:03:15.988Z,1.11
2022-12-08T20:06:19.165Z,0.97
2022-12-08T20:09:22.368Z,0.93
2022-12-08T20:12:26.395Z,0.96
2022-12-08T20:15:29.047Z,0.88
2022-12-08T20:18:31.747Z,0.73
2022-12-08T20:21:34.516Z,0.66
2022-12-08T20:24:37.487Z,0.69
2022-12-08T20:27:42.647Z,0.52
2022-12-08T20:30:47.100Z,0.44
2022-12-08T20:33:49.920Z,0.46
2022-12-08T20:36:52.682Z,0.44
2022-12-08T20:39:55.409Z,0.38
2022-12-08T20:42:59.982Z,0.35
2022-12-08T20:46:07.495Z,0.33
2022-12-08T20:49:10.490Z,0.31
2022-12-08T20:52:13.460Z,0.31
2022-12-08T20:55:16.264Z,0.31
2022-12-08T20:58:20.602Z,0.22
2022-12-08T21:01:25.385Z,0.26
2022-12-08T21:04:28.565Z,0.21
2022-12-08T21:07:32.330Z,0.15
2022-12-08T21:10:39.364Z,0.07
2022-12-08T21:13:48.235Z,0.05
2022-12-08T21:16:51.189Z,0.00
2022-12-08T21:19:54.274Z,0.01
2022-12-08T21:22:56.997Z,-0.08
2022-12-08T21:25:59.730Z,-0.05
2022-12-08T21:29:03.990Z,-0.05
2022-12-08T21:32:07.024Z,-0.13
2022-12-08T21:35:10.730Z,-0.14
2022-12-08T21:38:14.002Z,-0.21
2022-12-08T21:41:40.864Z,-0.17
2022-12-08T21:44:45.066Z,-0.26
2022-12-08T21:47:49.461Z,-0.32
2022-12-08T21:50:53.428Z,-0.38
2022-12-08T21:53:56.082Z,-0.34
2022-12-08T21:56:59.008Z,-0.37
2022-12-08T22:00:03.540Z,-0.40
2022-12-08T22:03:07.916Z,-0.46
2022-12-08T22:06:12.325Z,-0.43
2022-12-08T22:09:15.285Z,-0.55
2022-12-08T22:12:18.622Z,-0.57
2022-12-08T22:15:22.723Z,-0.57
2022-12-08T22:18:25.834Z,-0.56
2022-12-08T22:21:28.606Z,-0.44
2022-12-08T22:24:31.857Z,-0.47
2022-12-08T22:27:35.046Z,-0.53
2022-12-08T22:30:39.780Z,-0.58
2022-12-08T22:33:43.488Z,-0.59
2022-12-08T22:36:46.455Z,-0.64
2022-12-08T22:39:49.179Z,-0.57
2022-12-08T22:42:52.002Z,-0.55
2022-12-08T22:45:56.203Z,-0.60
2022-12-08T22:48:59.202Z,-0.50
2022-12-08T22:52:01.921Z,-0.49
2022-12-08T22:55:05.075Z,-0.56
2022-12-08T22:58:08.058Z,-0.63
2022-12-08T23:01:22.627Z,-0.68
2022-12-08T23:04:25.356Z,-0.72
2022-12-08T23:07:28.499Z,-0.89
2022-12-08T23:10:31.226Z,-1.08
2022-12-08T23:13:33.847Z,-0.99
2022-12-08T23:16:38.435Z,-0.84
2022-12-08T23:19:41.309Z,-0.81
2022-12-08T23:22:44.107Z,-0.89
2022-12-08T23:25:46.894Z,-0.94
2022-12-08T23:28:50.098Z,-0.95
2022-12-08T23:31:54.320Z,-0.98
2022-12-08T23:34:57.175Z,-1.00
2022-12-08T23:37:59.981Z,-1.14
2022-12-08T23:41:03.417Z,-1.16
2022-12-08T23:44:06.587Z,-1.08
2022-12-08T23:47:10.881Z,-1.04
2022-12-08T23:50:13.643Z,-1.11
2022-12-08T23:53:16.686Z,-1.12
2022-12-08T23:56:22.109Z,-1.18
2022-12-08T23:59:26.114Z,-1.18
